Flight Track Log - Related Links

Times and Time Zones

All times are in EST time to prevent confusion due to time zone crossing. See the SKW5631 flight status page for this flight to view local times or setup timezone preferences in your user account.

Time Position Orientation Groundspeed Altitude Reporting Facility
EST Latitude Longitude Course Direction KTS MPH feet Rate Location/Type
Sun 10:34:22 PM 37.6367 -122.3647 150° Southeast 147 169 27,000  Level Oakland Center
Sun 10:35:11 PM 37.6667 -122.3667 357° North 186 214 2,200 -13,107 Descending Northern Cal TRACON
Sun 10:36:05 PM 37.7167 -122.3833 345° North 238 274 4,500 2,421 Climbing Northern Cal TRACON
Sun 10:37:00 PM 37.2371 -121.9004 135° Southeast  Level Estimated
Sun 10:37:05 PM 37.6667 -122.4500 227° Southwest 287 330 6,800  Level Northern Cal TRACON
Sun 10:38:00 PM 37.1413 -121.7824 138° Southeast  Level Estimated
Sun 10:38:25 PM 37.5803 -122.4108 160° South 287 330 10,100  Level Oakland Center
Sun 10:39:00 PM 37.0254 -121.6975 150° Southeast  Level FlightAware Approximate
Sun 10:39:26 PM 37.4997 -122.3822 164° South 298 343 12,000  Level Oakland Center
Sun 10:40:27 PM 37.4314 -122.3114 141° Southeast 317 365 13,700 1,574 Climbing Oakland Center
Sun 10:41:28 PM 37.3597 -122.2350 140° Southeast 337 388 15,200 1,574 Climbing Oakland Center
Sun 10:42:29 PM 37.2703 -122.1367 139° Southeast 357 411 16,900 1,426 Climbing Oakland Center
Sun 10:43:30 PM 37.1939 -122.0542 139° Southeast 362 417 18,100 1,328 Climbing Oakland Center
Sun 10:44:31 PM 37.1169 -121.9703 139° Southeast 367 422 19,600 1,180 Climbing Oakland Center
Sun 10:45:32 PM 37.0369 -121.8850 140° Southeast 375 432 20,500 1,082 Climbing Oakland Center
Sun 10:46:33 PM 36.9542 -121.7972 140° Southeast 390 449 21,800 1,190 Climbing Oakland Center
Sun 10:47:33 PM 36.8722 -121.7122 140° Southeast 385 443 22,900 942 Climbing Oakland Center
Sun 10:48:34 PM 36.7933 -121.6300 140° Southeast 392 451 23,700 787 Climbing Oakland Center
Sun 10:49:35 PM 36.7094 -121.5414 140° Southeast 396 456 24,500 787 Climbing Oakland Center
Sun 10:50:36 PM 36.6247 -121.4481 139° Southeast 404 465 25,300 787 Climbing Oakland Center
Sun 10:51:37 PM 36.5367 -121.3556 140° Southeast 413 475 26,100 836 Climbing Oakland Center
Sun 10:52:38 PM 36.4319 -121.2461 140° Southeast 413 475 27,000 443 Climbing Oakland Center
Sun 10:53:39 PM 36.3419 -121.1514 140° Southeast 422 486 27,000  Level Oakland Center
Sun 10:54:40 PM 36.2494 -121.0550 140° Southeast 434 499 27,000  Level Oakland Center
Sun 10:55:41 PM 36.1558 -120.9561 140° Southeast 442 509 27,000  Level Oakland Center
Sun 10:56:42 PM 36.0600 -120.8564 140° Southeast 450 518 27,000  Level Oakland Center
Sun 10:57:43 PM 35.9642 -120.7547 139° Southeast 452 520 27,000  Level Oakland Center
Sun 10:58:44 PM 35.8683 -120.6558 140° Southeast 452 520 27,000  Level Oakland Center
Sun 10:59:45 PM 35.7725 -120.5569 140° Southeast 449 517 27,000  Level Oakland Center
Sun 11:00:45 PM 35.6758 -120.4575 140° Southeast 452 520 27,000  Level Oakland Center
Sun 11:01:46 PM 35.5792 -120.3589 140° Southeast 450 518 27,000  Level Oakland Center
Sun 11:02:47 PM 35.4819 -120.2569 139° Southeast 450 518 27,000  Level Oakland Center
Sun 11:03:56 PM 35.3725 -120.1469 141° Southeast 452 520 27,000 -687 Level Los Angeles Center
Sun 11:04:58 PM 35.2639 -120.0369 140° Southeast 454 522 25,500 -1,333 Descending Los Angeles Center
Sun 11:06:11 PM 35.1664 -119.9383 140° Southeast 454 522 24,000 -667 Descending Los Angeles Center
Sun 11:07:13 PM 35.0572 -119.8169 138° Southeast 445 512 24,000 -194 Level Los Angeles Center
Sun 11:08:15 PM 34.9747 -119.7050 132° Southeast 445 512 23,600 -774 Descending Los Angeles Center
Sun 11:09:17 PM 34.9047 -119.6086 132° Southeast 388 447 22,400 -1,561 Descending Los Angeles Center
Sun 11:10:18 PM 34.8336 -119.5128 132° Southeast 382 440 20,400 -2,164 Descending Los Angeles Center
Sun 11:11:19 PM 34.7486 -119.3983 132° Southeast 380 437 18,000 -2,098 Descending Los Angeles Center
Sun 11:12:21 PM 34.6778 -119.3058 133° Southeast 376 433 16,100 -2,000 Descending Los Angeles Center
Sun 11:13:22 PM 34.6114 -119.2194 133° Southeast 349 402 13,900 -2,098 Descending Los Angeles Center
Sun 11:14:24 PM 34.5500 -119.1383 133° Southeast 329 379 11,800 -1,403 Descending Los Angeles Center
Sun 11:15:26 PM 34.4900 -119.0539 131° Southeast 326 375 11,000 -780 Descending Los Angeles Center
Sun 11:16:27 PM 34.4336 -118.9819 134° Southeast 290 334 10,200 -927 Descending Los Angeles Center
Sun 11:17:29 PM 34.3878 -118.9100 128° Southeast 268 308 9,100 -1,073 Descending Los Angeles Center
Sun 11:18:30 PM 34.3425 -118.8342 126° Southeast 276 318 8,000 -1,111 Descending Los Angeles Center
Sun 11:19:44 PM 34.2972 -118.7678 130° Southeast 257 296 6,600 -1,588 Descending Los Angeles Center
Sun 11:20:46 PM 34.2364 -118.6686 127° Southeast 260 299 4,400 -1,462 Descending Los Angeles Center
Sun 11:21:43 PM 34.2000 -118.6000 123° Southeast 237 273 3,700 -462 Descending Southern California TRACON
Sun 11:22:43 PM 34.2000 -118.5333 90° East 166 191 3,500 -550 Descending Southern California TRACON
Sun 11:23:43 PM 34.2000 -118.4833 90° East 146 168 2,600 -750 Descending Southern California TRACON
Sun 11:24:43 PM 34.2000 -118.4333 90° East 148 170 2,000 -750 Descending Southern California TRACON
Sun 11:25:43 PM 34.2000 -118.3833 90° East 153 176 1,100 -900 Descending Southern California TRACON

Login

Don't have an account? Register now (free) for customized features, flight alerts, and more!